Time;durP1;ratioP1;P1;durP2;ratioP2;P2;SDS_P1;SDS_P2;PMS_P1;PMS_P2;Temp;Humidity;BMP_temperature;BMP_pressure;BME280_temperature;BME280_humidity;BME280_pressure;Samples;Min_cycle;Max_cycle;Signal;HPM_P1;HPM_P2
2022/07/10 00:01:01;;;;;;;735.53;697.07;;;10.60;99.90;;;;;;4962228;29;20456;-84
2022/07/10 00:03:28;;;;;;;726.70;691.03;;;10.50;99.90;;;;;;4944785;29;21065;-85
2022/07/10 00:05:55;;;;;;;729.10;694.53;;;10.50;99.90;;;;;;4942255;29;20499;-85
2022/07/10 00:08:22;;;;;;;669.03;640.07;;;10.50;99.90;;;;;;4959421;29;20988;-85
2022/07/10 00:10:49;;;;;;;681.70;651.73;;;10.40;99.90;;;;;;4962606;29;20490;-85
2022/07/10 00:13:18;;;;;;;674.40;644.43;;;10.50;99.90;;;;;;4947039;29;20472;-85
2022/07/10 00:15:45;;;;;;;639.97;613.20;;;10.60;99.90;;;;;;4942243;29;20568;-85
2022/07/10 00:18:15;;;;;;;485.40;467.80;;;10.60;99.90;;;;;;4957071;29;21018;-84
2022/07/10 00:20:42;;;;;;;518.20;498.53;;;10.70;99.90;;;;;;4961902;29;20547;-84
2022/07/10 00:23:09;;;;;;;643.07;616.27;;;10.70;99.90;;;;;;4948685;29;20897;-84
2022/07/10 00:25:36;;;;;;;685.90;655.40;;;10.70;99.90;;;;;;4941214;29;20556;-85
2022/07/10 00:28:04;;;;;;;681.13;650.80;;;10.70;99.90;;;;;;4953763;28;20459;-84
2022/07/10 00:30:31;;;;;;;756.20;717.57;;;10.80;99.90;;;;;;4961674;29;20896;-85
2022/07/10 00:32:59;;;;;;;766.10;725.40;;;10.80;99.90;;;;;;4950803;29;20483;-84
2022/07/10 00:35:27;;;;;;;788.23;745.07;;;10.80;99.90;;;;;;4942104;29;21009;-84
2022/07/10 00:37:56;;;;;;;772.87;730.97;;;10.90;99.90;;;;;;4950543;29;20983;-85
2022/07/10 00:40:24;;;;;;;754.00;715.53;;;11.00;99.90;;;;;;4961071;29;20456;-85
2022/07/10 00:42:50;;;;;;;763.23;722.73;;;11.00;99.90;;;;;;4952672;29;20498;-84
2022/07/10 00:45:17;;;;;;;699.50;666.80;;;11.10;99.90;;;;;;4941838;29;20885;-85
2022/07/10 00:47:44;;;;;;;689.13;657.50;;;11.20;99.90;;;;;;4948304;29;20897;-84
2022/07/10 00:50:12;;;;;;;662.17;631.17;;;11.20;99.90;;;;;;4960811;29;20534;-84
2022/07/10 00:52:42;;;;;;;610.00;584.30;;;11.30;99.90;;;;;;4951155;29;20560;-85
2022/07/10 00:55:14;;;;;;;623.30;597.70;;;11.30;99.90;;;;;;4942266;29;20967;-84
2022/07/10 00:57:44;;;;;;;680.83;650.17;;;11.40;99.90;;;;;;4952950;29;20466;-84
2022/07/10 01:00:12;;;;;;;571.03;547.97;;;11.40;99.90;;;;;;4961852;29;20898;-85
2022/07/10 01:02:43;;;;;;;373.57;361.63;;;11.50;99.90;;;;;;4950958;29;20476;-84
2022/07/10 01:05:10;;;;;;;291.37;282.37;;;11.60;99.90;;;;;;4942370;29;20468;-85
2022/07/10 01:07:37;;;;;;;382.37;369.93;;;11.70;99.90;;;;;;4951779;29;20920;-85
2022/07/10 01:10:06;;;;;;;439.63;423.87;;;11.80;99.90;;;;;;4960812;29;20452;-84
2022/07/10 01:12:33;;;;;;;453.27;436.67;;;11.80;99.90;;;;;;4952085;29;20477;-85
2022/07/10 01:15:02;;;;;;;561.67;539.17;;;11.80;99.90;;;;;;4942309;29;20547;-85
2022/07/10 01:17:31;;;;;;;532.37;511.80;;;11.90;99.90;;;;;;4949581;29;20479;-84
2022/07/10 01:19:58;;;;;;;575.90;552.87;;;11.90;99.90;;;;;;4961273;29;20519;-84
2022/07/10 01:22:27;;;;;;;650.83;621.53;;;11.90;99.90;;;;;;4954895;29;20564;-84
2022/07/10 01:24:54;;;;;;;669.67;638.57;;;11.90;99.90;;;;;;4941698;29;20885;-83
2022/07/10 01:27:21;;;;;;;632.97;603.83;;;11.80;99.90;;;;;;4946488;29;21053;-84
2022/07/10 01:29:51;;;;;;;632.80;604.70;;;11.90;99.90;;;;;;4960662;29;20456;-84
2022/07/10 01:32:18;;;;;;;619.67;592.80;;;12.00;99.90;;;;;;4959263;29;20504;-84
2022/07/10 01:34:46;;;;;;;652.00;622.40;;;11.90;99.90;;;;;;4942143;29;20516;-84
2022/07/10 01:37:13;;;;;;;647.27;617.73;;;12.00;99.90;;;;;;4941508;29;20571;-84
2022/07/10 01:39:42;;;;;;;612.07;584.80;;;12.00;99.90;;;;;;4941380;29;20595;-84
2022/07/10 01:42:08;;;;;;;587.40;562.43;;;12.10;99.90;;;;;;4960146;29;20528;-85
2022/07/10 01:44:35;;;;;;;614.57;588.03;;;12.10;99.90;;;;;;4961563;29;20462;-84
2022/07/10 01:47:02;;;;;;;609.17;581.90;;;12.20;99.90;;;;;;4959721;29;20502;-84
2022/07/10 01:49:29;;;;;;;579.93;554.53;;;12.20;99.90;;;;;;4959966;29;20448;-84
2022/07/10 01:51:56;;;;;;;565.50;540.73;;;12.30;99.90;;;;;;4943092;29;20548;-84
2022/07/10 01:54:23;;;;;;;559.17;534.97;;;12.40;99.90;;;;;;4947946;29;20451;-84
2022/07/10 01:56:51;;;;;;;529.63;507.87;;;12.40;99.90;;;;;;4959426;29;20483;-84
2022/07/10 01:59:18;;;;;;;489.37;470.00;;;12.50;99.90;;;;;;4954546;29;20453;-84
2022/07/10 02:01:45;;;;;;;460.13;442.50;;;12.60;99.90;;;;;;4941649;29;20476;-84
2022/07/10 02:07:01;;;;;;;404.73;390.73;;;12.60;99.90;;;;;;4951210;29;20440;-84
2022/07/10 02:09:28;;;;;;;388.40;374.90;;;12.60;99.90;;;;;;4954420;29;20488;-84
2022/07/10 02:11:56;;;;;;;384.63;371.80;;;12.60;99.90;;;;;;4940028;29;20484;-84
2022/07/10 02:14:23;;;;;;;379.40;366.70;;;12.60;99.90;;;;;;4944174;29;20456;-85
2022/07/10 02:16:50;;;;;;;404.07;389.87;;;12.60;99.90;;;;;;4960461;29;20514;-85
2022/07/10 02:19:22;;;;;;;401.70;388.00;;;12.60;99.90;;;;;;4958867;29;20464;-84
2022/07/10 02:21:49;;;;;;;393.57;379.93;;;12.50;99.90;;;;;;4941217;29;20509;-83
2022/07/10 02:24:16;;;;;;;396.60;383.07;;;12.50;99.90;;;;;;4954636;29;20463;-84
2022/07/10 02:26:46;;;;;;;390.50;377.30;;;12.40;99.90;;;;;;4960371;29;20483;-84
2022/07/10 02:29:17;;;;;;;376.47;364.13;;;12.30;99.90;;;;;;4947273;29;20475;-85
2022/07/10 02:31:43;;;;;;;405.17;390.27;;;12.30;99.90;;;;;;4948642;29;20510;-83
2022/07/10 02:34:12;;;;;;;459.50;443.00;;;12.10;99.90;;;;;;4947376;29;20564;-85
2022/07/10 02:36:39;;;;;;;485.53;467.90;;;12.00;99.90;;;;;;4948014;29;20500;-84
2022/07/10 02:39:07;;;;;;;501.93;484.00;;;11.70;99.90;;;;;;4954609;29;20540;-84
2022/07/10 02:41:35;;;;;;;542.57;522.60;;;11.70;99.90;;;;;;4941143;29;20491;-84
2022/07/10 02:44:02;;;;;;;631.67;605.17;;;11.50;99.90;;;;;;4944271;29;20479;-84
2022/07/10 02:46:30;;;;;;;645.33;617.20;;;11.50;99.90;;;;;;4960155;29;20459;-84
2022/07/10 02:48:57;;;;;;;670.63;641.43;;;11.30;99.90;;;;;;4956608;29;20459;-84
2022/07/10 02:51:24;;;;;;;703.63;669.97;;;11.30;99.90;;;;;;4940760;29;20995;-84
2022/07/10 02:53:50;;;;;;;681.67;649.87;;;11.40;99.90;;;;;;4945497;29;20460;-84
2022/07/10 02:56:17;;;;;;;649.40;620.90;;;11.50;99.90;;;;;;4962947;29;20476;-84
2022/07/10 02:58:44;;;;;;;603.10;578.20;;;11.60;99.90;;;;;;4962730;29;20463;-85
2022/07/10 03:01:10;;;;;;;570.03;547.03;;;11.70;99.90;;;;;;4961642;29;20451;-84
2022/07/10 03:03:38;;;;;;;502.37;482.97;;;11.70;99.90;;;;;;4962624;29;20459;-85
2022/07/10 03:06:05;;;;;;;495.77;476.67;;;11.80;99.90;;;;;;4944391;29;20460;-84
2022/07/10 03:08:32;;;;;;;502.57;483.50;;;11.80;99.90;;;;;;4953069;29;20459;-83
2022/07/10 03:10:59;;;;;;;530.70;510.10;;;11.80;99.90;;;;;;4963059;29;20455;-84
2022/07/10 03:13:26;;;;;;;556.93;534.50;;;11.80;99.90;;;;;;4956674;29;20480;-84
2022/07/10 03:15:55;;;;;;;561.03;538.60;;;11.80;99.90;;;;;;4946129;29;20461;-85
2022/07/10 03:18:21;;;;;;;560.97;538.60;;;11.70;99.90;;;;;;4944569;29;20968;-84
2022/07/10 03:25:03;;;;;;;689.27;657.73;;;11.60;99.90;;;;;;4895343;29;20478;-84
2022/07/10 03:27:32;;;;;;;717.00;682.60;;;11.50;99.90;;;;;;4891761;29;20466;-82
2022/07/10 03:29:58;;;;;;;738.80;702.80;;;11.50;99.90;;;;;;4956494;29;20456;-84
2022/07/10 03:32:29;;;;;;;723.87;689.60;;;11.50;99.90;;;;;;4957618;29;20483;-82
2022/07/10 03:34:56;;;;;;;739.60;703.90;;;11.50;99.90;;;;;;4950384;29;20457;-83
2022/07/10 03:37:31;;;;;;;654.97;626.10;;;11.40;99.90;;;;;;4950568;29;20540;-83
2022/07/10 03:40:03;;;;;;;646.50;619.10;;;11.50;99.90;;;;;;4951855;29;20440;-82
2022/07/10 03:42:35;;;;;;;684.80;653.63;;;11.50;99.90;;;;;;4950857;29;21009;-83
2022/07/10 03:45:10;;;;;;;704.07;671.50;;;11.50;99.90;;;;;;4950711;29;20452;-83
2022/07/10 03:47:37;;;;;;;715.07;681.87;;;11.50;99.90;;;;;;4950261;29;20508;-82
2022/07/10 03:50:05;;;;;;;725.03;690.90;;;11.50;99.90;;;;;;4951830;29;20457;-81
2022/07/10 03:52:32;;;;;;;692.77;662.30;;;11.40;99.90;;;;;;4968907;29;20472;-82
2022/07/10 03:54:58;;;;;;;642.10;615.43;;;11.30;99.90;;;;;;4955860;29;20459;-80
2022/07/10 04:00:12;;;;;;;682.53;653.30;;;11.30;99.90;;;;;;4964183;29;20499;-80
2022/07/10 04:02:39;;;;;;;706.37;675.10;;;11.40;99.90;;;;;;4940642;29;20475;-79
2022/07/10 04:05:07;;;;;;;764.73;727.87;;;11.20;99.90;;;;;;4955902;29;20457;-79
2022/07/10 04:07:34;;;;;;;772.23;734.97;;;11.20;99.90;;;;;;4967900;29;20980;-80
2022/07/10 04:10:01;;;;;;;794.33;754.07;;;11.00;99.90;;;;;;4964011;29;20459;-80
2022/07/10 04:12:28;;;;;;;851.33;804.23;;;11.00;99.90;;;;;;4963322;29;20479;-80
2022/07/10 04:14:56;;;;;;;874.13;823.70;;;11.00;99.90;;;;;;4951833;29;20461;-80
2022/07/10 04:17:24;;;;;;;867.40;817.03;;;11.00;99.90;;;;;;4958106;29;20480;-80
2022/07/10 04:19:50;;;;;;;864.47;813.17;;;11.00;99.90;;;;;;4970898;29;20478;-80
2022/07/10 04:22:17;;;;;;;863.03;809.23;;;11.10;99.90;;;;;;4970278;29;20472;-80
2022/07/10 04:24:44;;;;;;;873.03;817.97;;;11.20;99.90;;;;;;4969333;29;20460;-81
2022/07/10 04:27:11;;;;;;;879.40;823.00;;;11.20;99.90;;;;;;4950546;29;20477;-80
2022/07/10 04:29:37;;;;;;;869.93;815.40;;;11.40;99.90;;;;;;4951653;29;20492;-80
2022/07/10 04:32:05;;;;;;;876.37;821.33;;;11.50;99.90;;;;;;4965892;29;20483;-81
2022/07/10 04:34:33;;;;;;;874.30;818.50;;;11.70;99.90;;;;;;4956672;29;20466;-79
2022/07/10 04:37:00;;;;;;;844.90;793.60;;;12.00;99.90;;;;;;4958591;29;20453;-82
2022/07/10 04:39:26;;;;;;;763.03;719.90;;;12.20;99.90;;;;;;4954488;29;20456;-83
2022/07/10 04:41:53;;;;;;;720.03;680.07;;;12.50;99.90;;;;;;4969804;29;20464;-82
2022/07/10 04:44:20;;;;;;;572.63;544.60;;;12.70;99.90;;;;;;4964997;29;20459;-82
2022/07/10 04:46:47;;;;;;;399.73;383.13;;;12.90;99.90;;;;;;4952695;29;20481;-82
2022/07/10 04:49:14;;;;;;;376.53;361.83;;;13.20;99.90;;;;;;4961690;29;20548;-82
2022/07/10 04:51:42;;;;;;;282.13;271.63;;;13.40;99.90;;;;;;4950950;29;20483;-82
2022/07/10 04:54:09;;;;;;;212.77;204.80;;;13.50;98.10;;;;;;4962277;29;20467;-83
2022/07/10 04:56:36;;;;;;;192.40;185.80;;;13.70;96.90;;;;;;4960363;29;20452;-82
2022/07/10 04:59:03;;;;;;;111.90;107.90;;;13.90;96.70;;;;;;4950499;29;20461;-82
2022/07/10 05:01:29;;;;;;;31.10;29.63;;;14.00;94.50;;;;;;4962301;29;20467;-82
2022/07/10 05:03:56;;;;;;;26.33;24.97;;;14.10;91.30;;;;;;4961482;29;20460;-83
2022/07/10 05:06:23;;;;;;;14.50;13.40;;;14.30;92.20;;;;;;4961136;29;20468;-79
2022/07/10 05:08:51;;;;;;;8.70;7.90;;;14.40;90.20;;;;;;4953667;29;20456;-80
2022/07/10 05:11:18;;;;;;;15.83;6.53;;;14.40;89.70;;;;;;4964779;29;20456;-79
2022/07/10 05:13:46;;;;;;;11.80;5.13;;;14.40;88.70;;;;;;4951379;29;20456;-78
2022/07/10 05:16:13;;;;;;;6.37;5.53;;;14.40;87.60;;;;;;4962999;28;20458;-80
2022/07/10 05:18:40;;;;;;;7.17;4.10;;;14.50;86.80;;;;;;4965010;29;20483;-80
2022/07/10 05:21:07;;;;;;;9.10;3.87;;;14.60;83.50;;;;;;4957155;29;20460;-79
2022/07/10 05:23:34;;;;;;;6.77;3.27;;;14.80;83.60;;;;;;4948557;29;20472;-79
2022/07/10 05:26:02;;;;;;;6.17;2.90;;;14.90;81.40;;;;;;4955430;29;20463;-80
2022/07/10 05:28:29;;;;;;;5.90;3.20;;;15.10;80.20;;;;;;4953609;29;20483;-80
2022/07/10 05:30:56;;;;;;;8.67;2.50;;;15.40;79.10;;;;;;4961689;29;20465;-79
2022/07/10 05:33:23;;;;;;;5.80;2.70;;;15.60;75.60;;;;;;4947727;29;20479;-80
2022/07/10 05:35:49;;;;;;;6.27;2.50;;;15.70;73.30;;;;;;4965608;29;20453;-79
2022/07/10 05:38:17;;;;;;;4.43;1.97;;;16.00;71.00;;;;;;4954207;29;20459;-80
2022/07/10 05:40:44;;;;;;;6.07;2.53;;;16.30;68.60;;;;;;4960429;29;20457;-84
2022/07/10 05:43:12;;;;;;;8.53;2.57;;;16.50;66.90;;;;;;4948410;29;20482;-84
2022/07/10 05:45:39;;;;;;;5.63;2.13;;;16.50;66.30;;;;;;4961606;29;20456;-85
2022/07/10 05:48:06;;;;;;;8.57;2.73;;;16.40;66.80;;;;;;4951838;29;20467;-84
2022/07/10 05:50:33;;;;;;;6.50;2.13;;;16.20;66.60;;;;;;4957921;29;20844;-84
2022/07/10 05:52:59;;;;;;;6.93;2.47;;;16.10;66.50;;;;;;4965037;29;20482;-85
2022/07/10 05:55:26;;;;;;;5.50;2.90;;;16.10;66.50;;;;;;4944817;29;20995;-85
2022/07/10 05:58:15;;;;;;;6.90;2.53;;;16.10;66.50;;;;;;4945641;29;20463;-84
2022/07/10 06:01:12;;;;;;;4.10;1.60;;;16.00;66.50;;;;;;4965359;29;20476;-84
2022/07/10 06:03:39;;;;;;;6.57;2.10;;;16.00;66.50;;;;;;4935975;29;20467;-83
2022/07/10 06:06:06;;;;;;;6.33;2.20;;;16.10;66.60;;;;;;4948681;29;20473;-83
2022/07/10 06:08:33;;;;;;;7.00;2.70;;;16.60;65.60;;;;;;4962415;29;20484;-84
2022/07/10 06:10:59;;;;;;;5.20;2.10;;;16.80;63.50;;;;;;4948034;29;20452;-84
2022/07/10 06:13:26;;;;;;;5.03;2.10;;;16.90;60.60;;;;;;4959935;29;20486;-85
2022/07/10 06:15:53;;;;;;;5.27;2.03;;;17.20;62.20;;;;;;4954210;29;20466;-85
2022/07/10 06:18:21;;;;;;;8.77;1.87;;;17.40;59.40;;;;;;4960324;29;20462;-85
2022/07/10 06:20:48;;;;;;;8.10;2.37;;;17.60;56.90;;;;;;4957733;29;20456;-84
2022/07/10 06:23:14;;;;;;;7.17;1.93;;;17.50;56.80;;;;;;4943917;29;20566;-84
2022/07/10 06:25:41;;;;;;;6.63;2.33;;;17.30;58.20;;;;;;4943023;29;20467;-84
2022/07/10 06:28:08;;;;;;;6.30;1.90;;;17.10;59.20;;;;;;4951690;29;20479;-84
2022/07/10 06:30:35;;;;;;;5.63;1.77;;;16.90;61.90;;;;;;4952728;29;20556;-84
2022/07/10 06:33:01;;;;;;;7.13;1.73;;;16.90;61.20;;;;;;4947470;29;20486;-85
2022/07/10 06:35:29;;;;;;;8.13;2.77;;;16.50;60.50;;;;;;4958834;29;20463;-84
2022/07/10 06:37:56;;;;;;;9.40;1.77;;;16.40;62.30;;;;;;4965934;29;20462;-85
2022/07/10 06:40:23;;;;;;;5.70;2.20;;;16.20;61.80;;;;;;4958541;29;20464;-84
2022/07/10 06:42:50;;;;;;;9.20;2.00;;;16.20;63.20;;;;;;4947280;29;20479;-85
2022/07/10 06:45:17;;;;;;;6.13;2.10;;;16.10;63.20;;;;;;4962329;29;20806;-84
2022/07/10 06:47:59;;;;;;;8.90;2.43;;;16.00;64.50;;;;;;4964511;29;20876;-84
2022/07/10 06:50:29;;;;;;;5.63;1.90;;;15.90;63.60;;;;;;4961549;29;20963;-85
2022/07/10 06:52:58;;;;;;;5.47;1.90;;;15.90;64.70;;;;;;4951084;29;20475;-85
2022/07/10 06:55:25;;;;;;;8.23;2.73;;;16.00;65.00;;;;;;4950514;29;20460;-85
2022/07/10 06:57:51;;;;;;;10.47;2.10;;;16.00;63.60;;;;;;4956742;29;20461;-85
2022/07/10 07:00:18;;;;;;;8.53;1.90;;;15.90;63.20;;;;;;4950811;29;20974;-83
2022/07/10 07:02:45;;;;;;;10.93;2.20;;;16.00;64.50;;;;;;4963135;29;20493;-84
2022/07/10 07:05:13;;;;;;;6.83;2.13;;;16.10;66.00;;;;;;4959510;29;20469;-84
2022/07/10 07:07:40;;;;;;;12.07;2.10;;;16.00;64.70;;;;;;4945713;29;20855;-84
2022/07/10 07:10:10;;;;;;;8.37;2.00;;;16.20;62.60;;;;;;4948568;29;20460;-85
2022/07/10 07:12:37;;;;;;;6.57;3.30;;;16.20;63.50;;;;;;4964156;29;20562;-85
2022/07/10 07:15:05;;;;;;;6.13;2.03;;;16.20;63.30;;;;;;4965052;29;20462;-82
2022/07/10 07:17:45;;;;;;;7.87;2.33;;;16.20;63.70;;;;;;4956625;29;20462;-85
2022/07/10 07:23:12;;;;;;;9.07;1.70;;;16.40;62.20;;;;;;4959483;29;20466;-85
2022/07/10 07:25:46;;;;;;;6.90;2.00;;;16.60;61.90;;;;;;4957775;29;20498;-86
2022/07/10 07:28:15;;;;;;;9.87;2.87;;;16.80;61.20;;;;;;4955232;29;20483;-84
2022/07/10 07:30:42;;;;;;;10.17;1.90;;;16.90;61.20;;;;;;4951500;29;20459;-83
2022/07/10 07:33:08;;;;;;;4.77;1.50;;;17.00;59.10;;;;;;4946444;29;20476;-85
2022/07/10 07:35:37;;;;;;;4.20;1.70;;;16.80;57.60;;;;;;4952906;29;20524;-84
2022/07/10 07:38:05;;;;;;;6.33;1.80;;;17.00;59.10;;;;;;4946044;29;20461;-83
2022/07/10 07:40:37;;;;;;;10.40;1.87;;;17.00;60.20;;;;;;4943146;29;20468;-84
2022/07/10 07:43:08;;;;;;;13.03;2.90;;;17.00;55.20;;;;;;4944145;29;20532;-82
2022/07/10 07:45:41;;;;;;;5.60;1.80;;;17.10;56.30;;;;;;4940137;29;20486;-84
2022/07/10 07:48:08;;;;;;;10.93;1.90;;;17.10;56.30;;;;;;4942848;29;20472;-83
2022/07/10 07:50:37;;;;;;;5.37;1.93;;;17.10;57.50;;;;;;4946136;29;20460;-84
2022/07/10 07:53:05;;;;;;;7.83;1.90;;;17.10;55.90;;;;;;4962700;29;20567;-84
2022/07/10 07:55:34;;;;;;;5.97;1.57;;;16.90;55.30;;;;;;4962092;29;20893;-84
2022/07/10 07:58:01;;;;;;;5.90;1.80;;;16.90;50.90;;;;;;4962114;29;20449;-84
2022/07/10 08:00:29;;;;;;;6.97;1.70;;;17.00;56.10;;;;;;4955556;29;20452;-84
2022/07/10 08:03:00;;;;;;;7.50;1.63;;;16.90;51.90;;;;;;4962192;29;20993;-84
2022/07/10 08:05:27;;;;;;;12.73;1.90;;;16.80;52.00;;;;;;4962168;29;20468;-83
2022/07/10 08:07:55;;;;;;;11.80;1.97;;;17.00;51.00;;;;;;4961079;29;20567;-84
2022/07/10 08:10:26;;;;;;;14.30;1.90;;;17.10;52.20;;;;;;4961604;29;20452;-84
2022/07/10 08:12:54;;;;;;;4.67;1.40;;;17.10;53.10;;;;;;4960380;29;20483;-84
2022/07/10 08:15:24;;;;;;;10.93;1.43;;;16.90;53.60;;;;;;4962714;29;20515;-85
2022/07/10 08:17:55;;;;;;;10.17;1.87;;;17.00;51.80;;;;;;4946104;29;20505;-83
2022/07/10 08:20:23;;;;;;;8.43;1.50;;;17.20;50.70;;;;;;4942802;29;20445;-84
2022/07/10 08:22:50;;;;;;;5.83;1.33;;;17.20;52.40;;;;;;4958852;29;20470;-82
2022/07/10 08:25:16;;;;;;;4.63;1.37;;;17.60;51.00;;;;;;4961150;29;20453;-85
2022/07/10 08:27:43;;;;;;;6.93;2.10;;;18.00;51.30;;;;;;4950164;29;20495;-84
2022/07/10 08:30:15;;;;;;;6.03;1.30;;;18.10;51.40;;;;;;4942488;29;20468;-84
2022/07/10 08:32:42;;;;;;;6.20;1.77;;;18.40;51.70;;;;;;4955914;29;20475;-85
2022/07/10 08:35:13;;;;;;;8.03;2.10;;;18.20;50.70;;;;;;4956319;29;20534;-86
2022/07/10 08:37:40;;;;;;;11.17;1.90;;;18.30;49.10;;;;;;4942127;29;20455;-84
2022/07/10 08:40:27;;;;;;;8.17;2.20;;;18.30;49.30;;;;;;4943029;29;21035;-84
2022/07/10 08:42:57;;;;;;;6.97;2.20;;;18.70;49.10;;;;;;4950233;29;20537;-84
2022/07/10 08:45:26;;;;;;;4.60;1.60;;;18.90;48.60;;;;;;4947174;29;20476;-84
2022/07/10 08:47:57;;;;;;;7.53;1.50;;;19.00;46.50;;;;;;4958371;29;20588;-86
2022/07/10 08:51:12;;;;;;;11.87;1.70;;;18.30;48.20;;;;;;4961112;28;20942;-84
2022/07/10 08:53:44;;;;;;;5.47;1.80;;;18.10;48.90;;;;;;4942577;23;20476;-83
2022/07/10 08:56:13;;;;;;;8.57;2.03;;;18.10;48.70;;;;;;4940992;29;21033;-83
2022/07/10 09:01:44;;;;;;;8.70;2.37;;;18.10;51.40;;;;;;4939861;29;20467;-84
2022/07/10 09:07:59;;;;;;;8.77;2.00;;;18.00;51.60;;;;;;4895969;29;20492;-84
2022/07/10 09:10:43;;;;;;;4.83;1.63;;;18.20;52.90;;;;;;4933301;29;20465;-84
2022/07/10 09:13:49;;;;;;;8.83;1.70;;;18.60;51.90;;;;;;4959810;29;20483;-83
2022/07/10 09:16:39;;;;;;;8.93;2.20;;;19.40;47.70;;;;;;4955430;29;20460;-83
2022/07/10 09:20:13;;;;;;;6.22;2.10;;;19.80;45.50;;;;;;4944661;29;20536;-84
2022/07/10 09:22:58;;;;;;;6.83;1.73;;;19.70;46.60;;;;;;4940373;29;20280;-83
2022/07/10 09:26:04;;;;;;;4.40;1.60;;;19.30;45.90;;;;;;4941298;29;20486;-83
2022/07/10 09:28:32;;;;;;;7.90;2.03;;;18.60;49.00;;;;;;4908860;29;20488;-83
2022/07/10 09:30:59;;;;;;;8.73;2.30;;;18.40;50.10;;;;;;4941241;29;20466;-84
2022/07/10 09:33:51;;;;;;;4.87;1.93;;;18.40;51.10;;;;;;4941140;29;20490;-83
2022/07/10 09:36:24;;;;;;;9.30;1.97;;;18.40;51.70;;;;;;4882077;29;20474;-84
2022/07/10 09:38:53;;;;;;;7.47;2.47;;;18.20;50.30;;;;;;4882308;29;20488;-83
2022/07/10 09:41:33;;;;;;;8.33;2.53;;;18.30;51.70;;;;;;4932155;29;20488;-83
2022/07/10 09:44:07;;;;;;;8.50;2.30;;;18.20;50.80;;;;;;4940856;29;20457;-83
2022/07/10 09:46:36;;;;;;;6.00;1.90;;;18.00;51.30;;;;;;4942182;29;20478;-83
2022/07/10 09:49:08;;;;;;;9.30;2.47;;;17.30;59.40;;;;;;4941401;29;20848;-84
2022/07/10 09:51:37;;;;;;;6.73;2.50;;;16.90;62.80;;;;;;4941714;29;20481;-84
2022/07/10 09:54:13;;;;;;;10.50;2.30;;;16.70;71.20;;;;;;4941271;29;20454;-83
2022/07/10 09:56:52;;;;;;;10.53;3.40;;;16.40;73.50;;;;;;4941272;29;20465;-83
2022/07/10 10:05:46;;;;;;;10.13;3.60;;;16.60;86.20;;;;;;4945856;29;20492;-84
2022/07/10 10:08:38;;;;;;;11.23;2.93;;;16.60;80.00;;;;;;4947456;29;20569;-83
2022/07/10 10:11:08;;;;;;;11.17;3.77;;;17.40;76.50;;;;;;4944374;29;20454;-84
2022/07/10 10:14:32;;;;;;;8.50;3.17;;;18.50;68.70;;;;;;4947257;29;20488;-85
2022/07/10 10:17:01;;;;;;;6.77;2.37;;;19.70;61.60;;;;;;4893588;29;20470;-86
2022/07/10 10:23:07;;;;;;;6.67;2.70;;;19.80;53.00;;;;;;4947241;29;20954;-84
2022/07/10 10:25:35;;;;;;;9.97;3.17;;;20.10;53.20;;;;;;4946444;29;20467;-84
2022/07/10 10:33:46;;;;;;;7.00;2.70;;;19.80;53.10;;;;;;4968247;23;20495;-83
2022/07/10 10:36:16;;;;;;;6.57;2.00;;;19.90;53.10;;;;;;4947262;29;21113;-84
2022/07/10 10:42:59;;;;;;;5.67;2.00;;;20.50;48.20;;;;;;4866102;29;20479;-84
2022/07/10 10:52:22;;;;;;;5.50;1.90;;;21.20;43.10;;;;;;4921625;29;20484;-84
2022/07/10 10:55:16;;;;;;;5.20;1.57;;;21.00;43.60;;;;;;4948488;29;20458;-84
2022/07/10 10:57:53;;;;;;;6.43;1.90;;;20.60;44.30;;;;;;4913944;29;20538;-84
2022/07/10 11:00:40;;;;;;;6.60;2.27;;;20.30;46.10;;;;;;4946985;29;20457;-84
2022/07/10 11:03:27;;;;;;;7.63;1.70;;;19.80;47.60;;;;;;4946490;29;20498;-84
2022/07/10 11:05:54;;;;;;;5.03;2.00;;;18.90;51.50;;;;;;4942718;29;20494;-84
2022/07/10 11:08:40;;;;;;;5.37;2.30;;;18.70;54.70;;;;;;4946879;29;20482;-84
2022/07/10 11:11:38;;;;;;;4.00;1.60;;;18.60;58.00;;;;;;4947049;29;20555;-83
2022/07/10 11:14:05;;;;;;;4.87;1.60;;;19.30;54.40;;;;;;4866412;29;20458;-84
2022/07/10 11:16:33;;;;;;;6.57;1.90;;;20.10;48.60;;;;;;4926449;29;20536;-83
2022/07/10 11:19:02;;;;;;;4.67;1.57;;;20.00;48.20;;;;;;4944016;29;20518;-84
2022/07/10 11:21:39;;;;;;;7.20;2.03;;;19.60;50.30;;;;;;4944008;29;20967;-83
2022/07/10 11:24:14;;;;;;;4.33;1.80;;;19.20;51.50;;;;;;4944025;29;20977;-84
2022/07/10 11:26:52;;;;;;;9.67;2.50;;;19.00;52.30;;;;;;4943890;29;20451;-83
2022/07/10 11:29:19;;;;;;;7.23;2.60;;;19.00;52.90;;;;;;4943042;29;20581;-84
2022/07/10 11:31:53;;;;;;;6.13;2.50;;;19.50;51.80;;;;;;4942946;29;20485;-83
2022/07/10 11:34:22;;;;;;;5.50;2.30;;;19.70;49.70;;;;;;4943477;29;20701;-84
2022/07/10 11:36:51;;;;;;;5.10;1.83;;;20.30;50.50;;;;;;4943723;29;20554;-83
2022/07/10 11:39:20;;;;;;;7.73;1.83;;;20.20;46.00;;;;;;4944342;29;20512;-83
2022/07/10 11:41:47;;;;;;;4.50;1.90;;;19.40;47.70;;;;;;4943192;29;20469;-84
2022/07/10 11:44:20;;;;;;;5.63;1.93;;;19.10;52.00;;;;;;4943004;29;20462;-83
2022/07/10 11:46:49;;;;;;;8.97;2.27;;;18.80;53.90;;;;;;4943858;29;20468;-84
2022/07/10 11:49:19;;;;;;;5.33;2.10;;;18.50;54.00;;;;;;4943584;29;20477;-83
2022/07/10 11:51:46;;;;;;;9.10;2.30;;;18.20;54.60;;;;;;4942275;29;20566;-82
2022/07/10 11:54:15;;;;;;;5.60;2.20;;;17.80;63.00;;;;;;4942526;29;20462;-82
2022/07/10 11:56:51;;;;;;;10.63;3.30;;;17.60;64.10;;;;;;4942623;29;20463;-83
2022/07/10 11:59:20;;;;;;;9.80;2.60;;;17.70;68.00;;;;;;4942691;29;20456;-83
2022/07/10 12:01:56;;;;;;;7.40;3.03;;;18.00;65.90;;;;;;4942190;29;20531;-83
2022/07/10 12:04:26;;;;;;;7.93;2.80;;;18.80;62.10;;;;;;4942095;29;20456;-83
2022/07/10 12:06:55;;;;;;;13.10;2.40;;;19.30;55.40;;;;;;4942892;29;20585;-84
2022/07/10 12:09:26;;;;;;;6.80;2.53;;;20.00;52.90;;;;;;4942467;29;20466;-83
2022/07/10 12:12:04;;;;;;;4.97;1.70;;;20.10;48.10;;;;;;4942709;29;20905;-85
2022/07/10 12:14:31;;;;;;;5.03;1.73;;;20.70;50.60;;;;;;4935346;29;20485;-84
2022/07/10 12:17:00;;;;;;;5.30;2.07;;;20.80;48.60;;;;;;4942382;29;20460;-84
2022/07/10 12:22:45;;;;;;;5.00;1.40;;;20.10;45.90;;;;;;4848009;29;20495;-84
2022/07/10 12:25:15;;;;;;;4.47;1.70;;;19.60;46.80;;;;;;4936056;29;20486;-84
2022/07/10 12:27:43;;;;;;;4.30;1.50;;;19.30;48.60;;;;;;4942554;29;20900;-84
2022/07/10 12:30:10;;;;;;;4.00;1.07;;;19.50;50.70;;;;;;4942742;29;20467;-83
2022/07/10 12:32:37;;;;;;;4.40;1.23;;;19.40;47.80;;;;;;4943071;29;20486;-84
2022/07/10 12:35:12;;;;;;;4.90;1.70;;;19.20;48.60;;;;;;4942575;29;20470;-83
2022/07/10 12:37:48;;;;;;;4.00;1.03;;;18.90;48.20;;;;;;4942015;29;20461;-84
2022/07/10 12:41:07;;;;;;;4.67;1.30;;;18.80;51.30;;;;;;4941964;29;20485;-84
2022/07/10 12:43:37;;;;;;;5.13;1.53;;;19.00;52.20;;;;;;4883450;29;20479;-82
2022/07/10 12:46:14;;;;;;;5.90;1.40;;;19.20;52.30;;;;;;4882889;29;20459;-84
2022/07/10 12:48:44;;;;;;;6.50;2.23;;;19.60;51.70;;;;;;4922904;29;20509;-84
2022/07/10 12:51:21;;;;;;;10.27;4.80;;;19.70;46.40;;;;;;4942125;29;20454;-84
2022/07/10 12:53:48;;;;;;;6.67;1.83;;;20.00;46.50;;;;;;4942721;29;20492;-84
2022/07/10 12:56:38;;;;;;;6.57;2.17;;;20.20;45.60;;;;;;4942114;29;20481;-84
2022/07/10 12:59:14;;;;;;;6.70;2.50;;;20.30;46.00;;;;;;4941812;29;20531;-84
2022/07/10 13:01:46;;;;;;;8.20;1.77;;;20.10;46.40;;;;;;4941808;29;20533;-84
2022/07/10 13:04:14;;;;;;;6.70;2.43;;;20.00;47.40;;;;;;4940895;29;20471;-83
2022/07/10 13:06:44;;;;;;;8.27;2.80;;;19.80;47.00;;;;;;4940970;29;20474;-84
2022/07/10 13:09:25;;;;;;;6.53;2.20;;;19.50;48.00;;;;;;4941222;29;20454;-84
2022/07/10 13:11:54;;;;;;;7.00;2.40;;;19.40;48.70;;;;;;4941547;29;20473;-84
2022/07/10 13:14:23;;;;;;;7.20;2.27;;;19.20;50.30;;;;;;4940681;29;20458;-84
2022/07/10 13:16:49;;;;;;;7.20;2.47;;;19.20;48.30;;;;;;4941566;29;20466;-83
2022/07/10 13:19:17;;;;;;;4.80;2.27;;;19.50;49.80;;;;;;4940986;29;21074;-84
2022/07/10 13:21:43;;;;;;;5.60;2.77;;;19.70;47.30;;;;;;4941122;29;20501;-84
2022/07/10 13:24:10;;;;;;;7.33;2.40;;;20.20;47.20;;;;;;4940761;29;20472;-85
2022/07/10 13:26:37;;;;;;;6.77;2.57;;;20.90;45.20;;;;;;4940650;29;20539;-83
2022/07/10 13:29:04;;;;;;;5.03;2.07;;;22.80;37.90;;;;;;4941739;29;20456;-84
2022/07/10 13:31:47;;;;;;;12.70;2.33;;;23.70;31.70;;;;;;4941696;29;20879;-83
2022/07/10 13:34:14;;;;;;;4.37;1.77;;;24.70;30.40;;;;;;4941342;29;20977;-84
2022/07/10 13:36:41;;;;;;;5.40;2.10;;;24.40;27.10;;;;;;4941579;29;20452;-84